createdAt,value
2023-05-19T00:01:31.270Z,17.50
2023-05-19T00:04:02.713Z,17.48
2023-05-19T00:06:32.820Z,17.44
2023-05-19T00:09:04.201Z,17.40
2023-05-19T00:11:31.855Z,17.36
2023-05-19T00:14:00.809Z,17.27
2023-05-19T00:16:30.738Z,17.17
2023-05-19T00:19:02.530Z,17.05
2023-05-19T00:21:31.124Z,16.95
2023-05-19T00:23:58.954Z,16.85
2023-05-19T00:26:27.382Z,16.81
2023-05-19T00:28:54.852Z,16.78
2023-05-19T00:31:21.873Z,16.77
2023-05-19T00:33:48.857Z,16.76
2023-05-19T00:36:15.827Z,16.72
2023-05-19T00:38:42.730Z,16.69
2023-05-19T00:41:09.644Z,16.70
2023-05-19T00:43:37.903Z,16.72
2023-05-19T00:46:04.842Z,16.73
2023-05-19T00:48:31.701Z,16.67
2023-05-19T00:51:04.573Z,16.56
2023-05-19T00:53:34.162Z,16.45
2023-05-19T00:56:02.836Z,16.39
2023-05-19T00:58:32.406Z,16.38
2023-05-19T01:01:06.755Z,16.40
2023-05-19T01:03:35.963Z,16.41
2023-05-19T01:06:07.330Z,16.43
2023-05-19T01:08:36.414Z,16.46
2023-05-19T01:11:04.382Z,16.50
2023-05-19T01:13:32.010Z,16.53
2023-05-19T01:16:07.519Z,16.55
2023-05-19T01:18:46.351Z,16.54
2023-05-19T01:22:15.272Z,16.49
2023-05-19T01:25:17.584Z,16.45
2023-05-19T01:28:21.486Z,16.40
2023-05-19T01:30:54.324Z,16.43
2023-05-19T01:33:24.225Z,16.46
2023-05-19T01:35:53.728Z,16.48
2023-05-19T01:38:22.313Z,16.49
2023-05-19T01:40:51.976Z,16.50
2023-05-19T01:43:23.788Z,16.52
2023-05-19T01:45:53.473Z,16.50
2023-05-19T01:48:21.336Z,16.47
2023-05-19T01:50:48.491Z,16.43
2023-05-19T01:53:15.549Z,16.42
2023-05-19T01:55:47.863Z,16.39
2023-05-19T01:58:22.716Z,16.36
2023-05-19T02:01:02.747Z,16.36
2023-05-19T02:04:06.874Z,16.22
2023-05-19T02:06:44.241Z,16.18
2023-05-19T02:09:16.196Z,16.14
2023-05-19T02:11:54.690Z,16.09
2023-05-19T02:14:41.594Z,16.07
2023-05-19T02:17:12.810Z,16.09
2023-05-19T02:19:40.168Z,16.10
2023-05-19T02:22:07.276Z,16.09
2023-05-19T02:24:34.274Z,16.06
2023-05-19T02:27:01.219Z,15.98
2023-05-19T02:29:28.221Z,15.89
2023-05-19T02:31:55.213Z,15.80
2023-05-19T02:34:23.557Z,15.80
2023-05-19T02:36:50.558Z,15.80
2023-05-19T02:39:18.043Z,15.77
2023-05-19T02:41:44.962Z,15.73
2023-05-19T02:44:11.895Z,15.71
2023-05-19T02:46:38.881Z,15.71
2023-05-19T02:49:05.961Z,15.71
2023-05-19T02:51:34.208Z,15.72
2023-05-19T02:54:01.115Z,15.74
2023-05-19T02:56:28.166Z,15.75
2023-05-19T02:58:55.109Z,15.68
2023-05-19T03:01:23.050Z,15.56
2023-05-19T03:03:50.256Z,15.40
2023-05-19T03:06:17.951Z,15.25
2023-05-19T03:08:46.262Z,15.19
2023-05-19T03:11:13.226Z,15.17
2023-05-19T03:13:40.136Z,15.18
2023-05-19T03:16:08.119Z,15.16
2023-05-19T03:18:36.002Z,15.16
2023-05-19T03:21:03.220Z,15.15
2023-05-19T03:23:30.152Z,15.16
2023-05-19T03:25:58.398Z,15.21
2023-05-19T03:28:27.233Z,15.25
2023-05-19T03:30:54.263Z,15.30
2023-05-19T03:33:21.410Z,15.34
2023-05-19T03:35:48.386Z,15.35
2023-05-19T03:38:15.491Z,15.32
2023-05-19T03:40:42.511Z,15.32
2023-05-19T03:43:10.851Z,15.34
2023-05-19T03:45:37.818Z,15.34
2023-05-19T03:48:05.996Z,15.32
2023-05-19T03:50:33.867Z,15.33
2023-05-19T03:53:01.072Z,15.36
2023-05-19T03:55:29.808Z,15.41
2023-05-19T03:57:57.103Z,15.43
2023-05-19T04:00:25.392Z,15.46
2023-05-19T04:02:52.470Z,15.49
2023-05-19T04:05:19.486Z,15.49
2023-05-19T04:07:46.732Z,15.48
2023-05-19T04:10:14.054Z,15.49
2023-05-19T04:12:41.183Z,15.50
2023-05-19T04:15:11.412Z,15.51
2023-05-19T04:17:40.425Z,15.46
2023-05-19T04:20:08.362Z,15.41
2023-05-19T04:22:35.292Z,15.39
2023-05-19T04:25:03.958Z,15.41
2023-05-19T04:27:31.969Z,15.43
2023-05-19T04:29:59.343Z,15.45
2023-05-19T04:32:26.496Z,15.46
2023-05-19T04:34:54.756Z,15.47
2023-05-19T04:37:22.158Z,15.50
2023-05-19T04:39:49.117Z,15.51
2023-05-19T04:42:19.143Z,15.52
2023-05-19T04:44:46.409Z,15.54
2023-05-19T04:47:14.867Z,15.55
2023-05-19T04:49:41.873Z,15.54
2023-05-19T04:52:11.132Z,15.48
2023-05-19T04:54:39.898Z,15.47
2023-05-19T04:57:07.049Z,15.46
2023-05-19T04:59:34.071Z,15.48
2023-05-19T05:02:01.137Z,15.46
2023-05-19T05:04:28.357Z,15.47
2023-05-19T05:06:55.451Z,15.46
2023-05-19T05:09:23.758Z,15.46
2023-05-19T05:11:51.675Z,15.46
2023-05-19T05:14:19.575Z,15.47
2023-05-19T05:16:47.474Z,15.52
2023-05-19T05:19:15.281Z,15.58
2023-05-19T05:21:43.161Z,15.63
2023-05-19T05:24:12.290Z,15.65
2023-05-19T05:26:41.634Z,15.68
2023-05-19T05:29:09.992Z,15.70
2023-05-19T05:31:37.633Z,15.73
2023-05-19T05:34:04.727Z,15.75
2023-05-19T05:36:31.872Z,15.74
2023-05-19T05:38:59.490Z,15.71
2023-05-19T05:41:27.347Z,15.70
2023-05-19T05:43:55.810Z,15.66
2023-05-19T05:46:22.818Z,15.66
2023-05-19T05:48:50.648Z,15.72
2023-05-19T05:51:21.090Z,15.83
2023-05-19T05:53:53.864Z,15.95
2023-05-19T05:56:22.031Z,16.07
2023-05-19T05:58:49.597Z,16.17
2023-05-19T06:01:17.937Z,16.27
2023-05-19T06:03:45.098Z,16.37
2023-05-19T06:06:13.224Z,16.45
2023-05-19T06:08:40.257Z,16.49
2023-05-19T06:11:09.099Z,16.51
2023-05-19T06:13:36.508Z,16.55
2023-05-19T06:16:03.992Z,16.56
2023-05-19T06:18:32.425Z,16.57
2023-05-19T06:20:59.352Z,16.56
2023-05-19T06:23:28.910Z,16.63
2023-05-19T06:25:56.521Z,16.71
2023-05-19T06:28:23.457Z,16.79
2023-05-19T06:30:50.407Z,16.89
2023-05-19T06:33:17.340Z,16.97
2023-05-19T06:35:45.814Z,17.08
2023-05-19T06:38:12.815Z,17.21
2023-05-19T06:40:40.174Z,17.35
2023-05-19T06:43:07.124Z,17.49
2023-05-19T06:45:34.189Z,17.66
2023-05-19T06:48:01.343Z,17.79
2023-05-19T06:50:28.438Z,17.92
2023-05-19T06:52:58.187Z,18.03
2023-05-19T06:55:25.529Z,18.12
2023-05-19T06:57:52.486Z,18.20
2023-05-19T07:00:31.159Z,18.25
2023-05-19T07:02:58.108Z,18.34
2023-05-19T07:05:25.101Z,18.46
2023-05-19T07:07:52.014Z,18.53
2023-05-19T07:10:21.865Z,18.60
2023-05-19T07:12:48.786Z,18.66
2023-05-19T07:15:15.945Z,18.75
2023-05-19T07:17:42.914Z,18.84
2023-05-19T07:20:11.137Z,18.98
2023-05-19T07:22:39.658Z,19.09
2023-05-19T07:25:07.680Z,19.20
2023-05-19T07:27:36.596Z,19.32
2023-05-19T07:30:04.488Z,19.39
2023-05-19T07:32:31.777Z,19.48
2023-05-19T07:34:58.993Z,19.55
2023-05-19T07:37:26.338Z,19.63
2023-05-19T07:39:53.328Z,19.70
2023-05-19T07:42:20.346Z,19.76
2023-05-19T07:44:48.557Z,19.85
2023-05-19T07:47:15.489Z,19.93
2023-05-19T07:49:42.475Z,20.04
2023-05-19T07:52:09.507Z,20.13
2023-05-19T07:54:36.454Z,20.24
2023-05-19T07:57:03.930Z,20.48
2023-05-19T07:59:31.366Z,21.19
2023-05-19T08:01:59.827Z,22.44
2023-05-19T08:04:27.771Z,23.60
2023-05-19T08:06:55.025Z,24.91
2023-05-19T08:09:22.121Z,26.35
2023-05-19T08:11:49.840Z,27.48
2023-05-19T08:14:17.025Z,28.53
2023-05-19T08:16:45.962Z,29.52
2023-05-19T08:19:14.406Z,30.41
2023-05-19T08:21:42.402Z,31.11
2023-05-19T08:24:09.487Z,31.59
2023-05-19T08:26:37.750Z,32.00
2023-05-19T08:29:05.257Z,32.52
2023-05-19T08:31:32.595Z,33.10
2023-05-19T08:33:59.782Z,33.87
2023-05-19T08:36:28.706Z,34.62
2023-05-19T08:38:55.793Z,35.27
2023-05-19T08:41:23.263Z,35.73
2023-05-19T08:43:50.691Z,35.97
2023-05-19T08:46:18.581Z,36.34
2023-05-19T08:48:48.538Z,36.89
2023-05-19T08:51:32.096Z,37.55
2023-05-19T08:54:12.357Z,37.85
2023-05-19T08:56:39.585Z,38.09
2023-05-19T08:59:08.100Z,38.31
2023-05-19T09:04:07.497Z,38.92
2023-05-19T09:06:35.939Z,38.89
2023-05-19T09:09:04.322Z,38.83
2023-05-19T09:11:31.327Z,39.08
2023-05-19T09:13:58.423Z,39.24
2023-05-19T09:16:27.960Z,39.48
2023-05-19T09:18:58.373Z,39.62
2023-05-19T09:21:32.268Z,39.38
2023-05-19T09:24:06.107Z,39.00
2023-05-19T09:26:38.299Z,38.72
2023-05-19T09:29:11.914Z,39.07
2023-05-19T09:31:38.910Z,39.03
2023-05-19T09:34:13.206Z,38.98
2023-05-19T09:36:41.493Z,39.01
2023-05-19T09:39:17.061Z,39.20
2023-05-19T09:41:45.092Z,39.62
2023-05-19T09:44:23.373Z,39.94
2023-05-19T09:46:51.735Z,40.19
2023-05-19T09:49:23.992Z,40.56
2023-05-19T09:51:53.869Z,39.68
2023-05-19T09:54:23.648Z,39.28
2023-05-19T09:57:01.126Z,39.73
2023-05-19T09:59:32.440Z,38.99
2023-05-19T10:02:02.423Z,37.75
2023-05-19T10:04:31.300Z,37.70
2023-05-19T10:06:59.527Z,38.09
2023-05-19T10:09:29.482Z,37.49
2023-05-19T10:11:58.572Z,36.31
2023-05-19T10:14:28.365Z,35.45
2023-05-19T10:16:57.505Z,35.42
2023-05-19T10:19:28.040Z,34.86
2023-05-19T10:21:56.183Z,33.78
2023-05-19T10:24:23.134Z,32.62
2023-05-19T10:26:58.327Z,32.01
2023-05-19T10:29:29.974Z,32.84
2023-05-19T10:32:02.897Z,33.61
2023-05-19T10:35:05.211Z,33.09
2023-05-19T10:37:45.106Z,32.42
2023-05-19T10:40:20.928Z,32.17
2023-05-19T10:43:05.176Z,32.87
2023-05-19T10:45:40.516Z,32.96
2023-05-19T10:48:11.426Z,32.78
2023-05-19T10:50:38.827Z,32.36
2023-05-19T10:53:14.585Z,32.15
2023-05-19T10:55:55.792Z,32.02
2023-05-19T10:58:50.773Z,31.34
2023-05-19T11:01:19.802Z,30.92
2023-05-19T11:03:49.333Z,30.64
2023-05-19T11:06:27.885Z,30.40
2023-05-19T11:08:58.173Z,30.03
2023-05-19T11:11:25.169Z,29.68
2023-05-19T11:13:56.154Z,29.71
2023-05-19T11:16:32.006Z,29.72
2023-05-19T11:19:00.928Z,29.29
2023-05-19T11:21:43.357Z,29.15
2023-05-19T11:24:10.449Z,29.08
2023-05-19T11:26:42.772Z,28.78
2023-05-19T11:29:11.826Z,28.44
2023-05-19T11:31:39.648Z,28.14
2023-05-19T11:34:08.061Z,28.03
2023-05-19T11:36:37.372Z,27.84
2023-05-19T11:39:05.962Z,27.59
2023-05-19T11:41:32.957Z,27.43
2023-05-19T11:43:59.921Z,27.31
2023-05-19T11:46:28.587Z,27.30
2023-05-19T11:48:55.674Z,27.65
2023-05-19T11:51:22.795Z,28.26
2023-05-19T11:53:50.982Z,28.67
2023-05-19T11:56:17.954Z,28.76
2023-05-19T11:58:44.870Z,28.71
2023-05-19T12:01:11.859Z,28.76
2023-05-19T12:03:40.317Z,28.71
2023-05-19T12:06:08.575Z,28.72
2023-05-19T12:08:36.630Z,28.56
2023-05-19T12:11:04.992Z,28.37
2023-05-19T12:13:33.032Z,28.17
2023-05-19T12:16:01.292Z,28.15
2023-05-19T12:18:31.440Z,28.17
2023-05-19T12:20:59.919Z,28.16
2023-05-19T12:23:30.571Z,28.18
2023-05-19T12:25:58.505Z,28.55
2023-05-19T12:28:25.486Z,29.36
2023-05-19T12:30:53.412Z,30.41
2023-05-19T12:33:22.765Z,30.83
2023-05-19T12:35:50.498Z,31.11
2023-05-19T12:38:19.922Z,31.21
2023-05-19T12:40:46.871Z,30.95
2023-05-19T12:43:20.919Z,30.42
2023-05-19T12:45:47.985Z,30.02
2023-05-19T12:48:16.676Z,30.00
2023-05-19T12:50:48.468Z,30.04
2023-05-19T12:53:15.750Z,30.21
2023-05-19T12:55:45.570Z,30.38
2023-05-19T12:58:13.383Z,30.25
2023-05-19T13:00:42.274Z,29.92
2023-05-19T13:03:16.472Z,29.46
2023-05-19T13:05:46.525Z,29.09
2023-05-19T13:08:16.101Z,28.95
2023-05-19T13:10:46.194Z,29.34
2023-05-19T13:13:31.739Z,29.39
2023-05-19T13:16:17.076Z,29.01
2023-05-19T13:19:03.237Z,28.69
2023-05-19T13:21:30.246Z,28.42
2023-05-19T13:23:57.204Z,28.15
2023-05-19T13:26:25.457Z,27.92
2023-05-19T13:28:52.430Z,27.77
2023-05-19T13:31:19.572Z,27.70
2023-05-19T13:33:46.568Z,27.82
2023-05-19T13:36:13.561Z,28.00
2023-05-19T13:38:41.829Z,28.35
2023-05-19T13:41:10.665Z,28.67
2023-05-19T13:43:39.143Z,28.73
2023-05-19T13:46:06.233Z,28.65
2023-05-19T13:48:33.174Z,28.51
2023-05-19T13:51:00.086Z,28.33
2023-05-19T13:53:27.266Z,28.14
2023-05-19T13:55:55.924Z,28.00
2023-05-19T13:58:51.374Z,27.98
2023-05-19T14:01:26.399Z,28.15
2023-05-19T14:03:53.599Z,28.09
2023-05-19T14:06:20.754Z,28.01
2023-05-19T14:08:47.744Z,28.03
2023-05-19T14:11:18.357Z,28.10
2023-05-19T14:13:45.375Z,28.17
2023-05-19T14:16:12.364Z,28.28
2023-05-19T14:18:40.861Z,28.56
2023-05-19T14:21:08.181Z,28.57
2023-05-19T14:23:35.408Z,28.36
2023-05-19T14:26:02.474Z,28.06
2023-05-19T14:28:29.545Z,27.90
2023-05-19T14:30:56.595Z,27.82
2023-05-19T14:33:23.552Z,27.71
2023-05-19T14:35:53.157Z,27.50
2023-05-19T14:38:20.205Z,27.28
2023-05-19T14:40:48.420Z,27.06
2023-05-19T14:43:15.421Z,26.84
2023-05-19T14:45:42.508Z,26.72
2023-05-19T14:48:11.694Z,26.63
2023-05-19T14:50:39.026Z,26.52
2023-05-19T14:53:07.362Z,26.41
2023-05-19T14:55:34.306Z,26.28
2023-05-19T14:58:01.409Z,26.15
2023-05-19T15:00:28.376Z,26.07
2023-05-19T15:02:56.023Z,26.00
2023-05-19T15:05:24.126Z,26.05
2023-05-19T15:07:51.695Z,26.25
2023-05-19T15:10:24.161Z,26.46
2023-05-19T15:12:51.171Z,26.66
2023-05-19T15:15:18.241Z,26.86
2023-05-19T15:17:46.803Z,27.14
2023-05-19T15:20:13.880Z,27.35
2023-05-19T15:22:40.911Z,27.60
2023-05-19T15:25:09.886Z,27.69
2023-05-19T15:27:38.207Z,27.63
2023-05-19T15:30:06.934Z,27.53
2023-05-19T15:32:33.998Z,27.41
2023-05-19T15:35:01.053Z,27.33
2023-05-19T15:37:28.019Z,27.23
2023-05-19T15:39:55.028Z,27.15
2023-05-19T15:42:21.988Z,27.11
2023-05-19T15:44:50.321Z,27.13
2023-05-19T15:47:17.354Z,27.05
2023-05-19T15:49:44.318Z,26.99
2023-05-19T15:52:11.272Z,26.96
2023-05-19T15:54:38.165Z,26.94
2023-05-19T15:57:05.724Z,26.86
2023-05-19T15:59:32.752Z,26.72
2023-05-19T16:02:01.203Z,26.56
2023-05-19T16:04:28.249Z,26.41
2023-05-19T16:06:55.433Z,26.30
2023-05-19T16:09:22.406Z,26.40
2023-05-19T16:11:49.606Z,26.76
2023-05-19T16:14:16.520Z,27.30
2023-05-19T16:16:44.453Z,27.90
2023-05-19T16:19:12.949Z,28.26
2023-05-19T16:21:39.900Z,28.36
2023-05-19T16:24:07.211Z,28.32
2023-05-19T16:26:34.463Z,28.12
2023-05-19T16:29:01.458Z,27.89
2023-05-19T16:31:28.514Z,27.67
2023-05-19T16:33:55.507Z,27.43
2023-05-19T16:36:23.931Z,27.20
2023-05-19T16:38:50.842Z,27.03
2023-05-19T16:41:17.831Z,26.90
2023-05-19T16:43:44.823Z,26.81
2023-05-19T16:46:12.270Z,26.70
2023-05-19T16:48:39.324Z,26.57
2023-05-19T16:51:06.370Z,26.41
2023-05-19T16:53:34.670Z,26.24
2023-05-19T16:56:01.906Z,26.13
2023-05-19T16:58:30.911Z,26.01
2023-05-19T17:00:58.198Z,25.90
2023-05-19T17:03:25.355Z,25.78
2023-05-19T17:05:52.478Z,25.65
2023-05-19T17:08:19.441Z,25.49
2023-05-19T17:10:48.935Z,25.39
2023-05-19T17:13:16.079Z,25.32
2023-05-19T17:15:43.584Z,25.28
2023-05-19T17:18:12.424Z,25.27
2023-05-19T17:20:39.552Z,25.26
2023-05-19T17:23:06.861Z,25.28
2023-05-19T17:25:34.594Z,25.29
2023-05-19T17:28:03.006Z,25.31
2023-05-19T17:30:29.929Z,25.34
2023-05-19T17:32:58.929Z,25.36
2023-05-19T17:35:28.257Z,25.40
2023-05-19T17:37:55.602Z,25.40
2023-05-19T17:40:22.544Z,25.35
2023-05-19T17:42:49.481Z,25.31
2023-05-19T17:45:18.156Z,25.26
2023-05-19T17:47:45.257Z,25.19
2023-05-19T17:50:12.277Z,25.15
2023-05-19T17:52:40.777Z,25.12
2023-05-19T17:55:10.962Z,25.09
2023-05-19T17:57:43.312Z,25.02
2023-05-19T18:00:12.492Z,24.92
2023-05-19T18:02:42.087Z,24.82
2023-05-19T18:05:11.116Z,24.71
2023-05-19T18:07:41.520Z,24.58
2023-05-19T18:10:10.993Z,24.47
2023-05-19T18:12:37.959Z,24.38
2023-05-19T18:15:06.595Z,24.28
2023-05-19T18:17:33.631Z,24.20
2023-05-19T18:20:02.179Z,24.13
2023-05-19T18:22:29.400Z,24.08
2023-05-19T18:24:57.541Z,24.02
2023-05-19T18:27:24.646Z,23.94
2023-05-19T18:29:51.609Z,23.86
2023-05-19T18:32:18.605Z,23.80
2023-05-19T18:34:45.699Z,23.73
2023-05-19T18:37:13.953Z,23.68
2023-05-19T18:39:41.002Z,23.60
2023-05-19T18:42:07.972Z,23.56
2023-05-19T18:44:34.926Z,23.50
2023-05-19T18:47:01.942Z,23.44
2023-05-19T18:49:29.014Z,23.38
2023-05-19T18:51:56.018Z,23.33
2023-05-19T18:54:24.732Z,23.31
2023-05-19T18:56:51.756Z,23.30
2023-05-19T18:59:18.865Z,23.29
2023-05-19T19:01:45.997Z,23.26
2023-05-19T19:04:14.670Z,23.24
2023-05-19T19:06:42.046Z,23.22
2023-05-19T19:09:09.616Z,23.20
2023-05-19T19:11:38.139Z,23.21
2023-05-19T19:14:05.088Z,23.20
2023-05-19T19:16:32.264Z,23.20
2023-05-19T19:18:59.366Z,23.17
2023-05-19T19:21:26.359Z,23.15
2023-05-19T19:23:56.550Z,23.14
2023-05-19T19:26:28.783Z,23.14
2023-05-19T19:28:57.470Z,23.15
2023-05-19T19:31:28.757Z,23.14
2023-05-19T19:33:58.861Z,23.11
2023-05-19T19:36:26.577Z,23.09
2023-05-19T19:38:53.592Z,23.08
2023-05-19T19:41:21.150Z,23.06
2023-05-19T19:43:48.104Z,23.04
2023-05-19T19:46:16.394Z,23.01
2023-05-19T19:48:43.517Z,22.97
2023-05-19T19:51:10.428Z,22.94
2023-05-19T19:53:37.388Z,22.89
2023-05-19T19:56:05.908Z,22.87
2023-05-19T19:58:32.863Z,22.82
2023-05-19T20:01:02.658Z,22.79
2023-05-19T20:03:31.767Z,22.79
2023-05-19T20:05:58.854Z,22.73
2023-05-19T20:08:26.361Z,22.67
2023-05-19T20:10:53.798Z,22.64
2023-05-19T20:13:21.147Z,22.60
2023-05-19T20:15:48.192Z,22.55
2023-05-19T20:18:15.335Z,22.51
2023-05-19T20:20:43.663Z,22.45
2023-05-19T20:23:10.803Z,22.38
2023-05-19T20:25:58.510Z,22.36
2023-05-19T20:28:29.751Z,22.33
2023-05-19T20:30:56.725Z,22.33
2023-05-19T20:33:23.910Z,22.31
2023-05-19T20:35:52.224Z,22.29
2023-05-19T20:38:19.241Z,22.25
2023-05-19T20:40:47.541Z,22.18
2023-05-19T20:43:14.605Z,22.11
2023-05-19T20:45:43.112Z,22.05
2023-05-19T20:48:11.265Z,22.02
2023-05-19T20:50:39.408Z,22.00
2023-05-19T20:53:07.968Z,21.98
2023-05-19T20:55:37.818Z,21.99
2023-05-19T20:58:04.822Z,21.97
2023-05-19T21:00:32.202Z,21.96
2023-05-19T21:02:59.703Z,21.95
2023-05-19T21:05:26.791Z,21.95
2023-05-19T21:07:53.815Z,21.93
2023-05-19T21:10:22.118Z,21.91
2023-05-19T21:12:49.061Z,21.87
2023-05-19T21:15:16.136Z,21.81
2023-05-19T21:17:43.066Z,21.75
2023-05-19T21:20:11.332Z,21.71
2023-05-19T21:22:38.289Z,21.65
2023-05-19T21:25:06.691Z,21.64
2023-05-19T21:27:36.175Z,21.63
2023-05-19T21:30:03.592Z,21.62
2023-05-19T21:32:32.059Z,21.62
2023-05-19T21:34:59.889Z,21.61
2023-05-19T21:37:26.900Z,21.59
2023-05-19T21:39:53.869Z,21.55
2023-05-19T21:42:20.790Z,21.51
2023-05-19T21:44:49.085Z,21.44
2023-05-19T21:47:16.286Z,21.42
2023-05-19T21:49:43.453Z,21.42
2023-05-19T21:52:10.787Z,21.42
2023-05-19T21:54:37.843Z,21.40
2023-05-19T21:57:05.477Z,21.39
2023-05-19T21:59:32.421Z,21.36
2023-05-19T22:02:00.726Z,21.33
2023-05-19T22:04:31.281Z,21.32
2023-05-19T22:06:58.645Z,21.29
2023-05-19T22:09:25.674Z,21.28
2023-05-19T22:11:52.570Z,21.23
2023-05-19T22:14:19.491Z,21.21
2023-05-19T22:16:47.358Z,21.14
2023-05-19T22:19:16.072Z,21.11
2023-05-19T22:24:09.866Z,21.05
2023-05-19T22:26:36.936Z,21.04
2023-05-19T22:29:03.868Z,21.06
2023-05-19T22:31:30.884Z,21.04
2023-05-19T22:33:57.863Z,21.03
2023-05-19T22:36:26.170Z,21.02
2023-05-19T22:38:53.176Z,21.03
2023-05-19T22:41:20.105Z,21.01
2023-05-19T22:43:47.001Z,21.01
2023-05-19T22:46:14.044Z,20.99
2023-05-19T22:48:41.149Z,20.97
2023-05-19T22:51:08.128Z,20.94
2023-05-19T22:53:36.356Z,20.91
2023-05-19T22:56:03.444Z,20.89
2023-05-19T22:58:30.418Z,20.86
2023-05-19T23:00:57.470Z,20.83
2023-05-19T23:03:24.390Z,20.80
2023-05-19T23:05:51.313Z,20.79
2023-05-19T23:08:18.254Z,20.78
2023-05-19T23:10:46.497Z,20.76
2023-05-19T23:13:15.288Z,20.73
2023-05-19T23:15:42.270Z,20.71
2023-05-19T23:18:09.289Z,20.70
2023-05-19T23:20:36.384Z,20.68
2023-05-19T23:23:03.385Z,20.65
2023-05-19T23:25:30.330Z,20.60
2023-05-19T23:27:58.741Z,20.57
2023-05-19T23:30:25.747Z,20.50
2023-05-19T23:32:52.962Z,20.44
2023-05-19T23:35:20.613Z,20.39
2023-05-19T23:37:47.818Z,20.36
2023-05-19T23:40:15.456Z,20.32
2023-05-19T23:42:44.204Z,20.27
2023-05-19T23:45:12.798Z,20.21
2023-05-19T23:47:39.757Z,20.16
2023-05-19T23:50:07.542Z,20.12
2023-05-19T23:52:34.521Z,20.06
2023-05-19T23:55:03.185Z,20.02
2023-05-19T23:57:30.210Z,20.00
2023-05-19T23:59:57.175Z,19.96
